createdAt,value
2023-05-02T00:02:43.308Z,32.22
2023-05-02T00:07:46.397Z,42.03
2023-05-02T00:12:50.522Z,43.47
2023-05-02T00:17:53.458Z,43.33
2023-05-02T00:22:56.807Z,39.30
2023-05-02T00:28:01.175Z,37.70
2023-05-02T00:33:06.966Z,47.05
2023-05-02T00:38:10.137Z,33.72
2023-05-02T00:43:14.635Z,40.30
2023-05-02T00:48:20.688Z,37.28
2023-05-02T00:53:23.818Z,43.08
2023-05-02T00:58:29.336Z,44.13
2023-05-02T01:03:40.194Z,45.97
2023-05-02T01:08:51.626Z,45.67
2023-05-02T01:13:57.218Z,50.13
2023-05-02T01:19:02.618Z,44.88
2023-05-02T01:24:11.193Z,45.75
2023-05-02T01:29:17.999Z,51.40
2023-05-02T01:34:23.303Z,60.90
2023-05-02T01:39:27.775Z,58.60
2023-05-02T01:44:35.980Z,60.50
2023-05-02T01:49:40.458Z,63.17
2023-05-02T01:54:45.360Z,66.22
2023-05-02T01:59:51.385Z,62.35
2023-05-02T02:04:55.922Z,72.18
2023-05-02T02:09:59.215Z,71.75
2023-05-02T02:15:14.328Z,65.20
2023-05-02T02:20:18.029Z,73.30
2023-05-02T02:25:21.007Z,78.95
2023-05-02T02:30:25.187Z,89.65
2023-05-02T02:35:35.683Z,88.82
2023-05-02T02:40:45.501Z,93.60
2023-05-02T02:46:01.910Z,88.28
2023-05-02T02:51:13.924Z,93.78
2023-05-02T02:56:21.058Z,99.18
2023-05-02T03:01:28.041Z,104.20
2023-05-02T03:06:31.066Z,111.68
2023-05-02T03:11:34.431Z,99.13
2023-05-02T03:16:40.069Z,114.28
2023-05-02T03:21:47.420Z,115.70
2023-05-02T03:26:56.178Z,117.88
2023-05-02T03:32:04.097Z,119.28
2023-05-02T03:37:07.176Z,109.05
2023-05-02T03:42:09.989Z,121.70
2023-05-02T03:47:14.660Z,131.07
2023-05-02T03:52:19.007Z,139.63
2023-05-02T03:57:23.147Z,140.00
2023-05-02T04:02:27.979Z,137.73
2023-05-02T04:07:31.020Z,136.82
2023-05-02T05:15:27.416Z,147.53
2023-05-02T05:20:34.240Z,143.95
2023-05-02T05:25:40.382Z,147.27
2023-05-02T05:30:45.836Z,128.07
2023-05-02T05:35:53.041Z,135.60
2023-05-02T05:40:57.670Z,133.13
2023-05-02T05:46:03.825Z,127.45
2023-05-02T05:56:13.186Z,129.43
2023-05-02T06:01:24.041Z,149.55
2023-05-02T06:06:28.206Z,122.65
2023-05-02T06:11:31.156Z,120.97
2023-05-02T06:16:36.207Z,112.13
2023-05-02T06:21:39.270Z,95.30
2023-05-02T06:26:43.178Z,98.47
2023-05-02T06:31:47.360Z,86.85
2023-05-02T06:36:51.713Z,90.43
2023-05-02T06:41:58.884Z,94.30
2023-05-02T06:47:05.798Z,85.95
2023-05-02T06:52:10.486Z,84.45
2023-05-02T06:57:14.070Z,82.13
2023-05-02T07:02:18.923Z,81.45
2023-05-02T07:07:22.458Z,83.38
2023-05-02T07:12:26.990Z,78.00
2023-05-02T07:17:31.322Z,81.25
2023-05-02T07:22:34.497Z,81.10
2023-05-02T07:27:37.699Z,78.82
2023-05-02T07:32:41.969Z,76.75
2023-05-02T07:37:45.993Z,82.25
2023-05-02T07:42:50.749Z,68.15
2023-05-02T07:47:54.934Z,69.75
2023-05-02T07:52:58.027Z,70.47
2023-05-02T07:58:00.923Z,63.95
2023-05-02T08:03:06.125Z,70.72
2023-05-02T08:08:09.053Z,51.78
2023-05-02T08:13:13.110Z,53.50
2023-05-02T08:18:19.485Z,46.22
2023-05-02T08:23:22.266Z,35.47
2023-05-02T08:28:25.366Z,36.33
2023-05-02T08:33:30.801Z,34.35
2023-05-02T08:38:33.608Z,38.17
2023-05-02T08:43:38.691Z,32.55
2023-05-02T08:48:46.096Z,37.00
2023-05-02T08:53:50.347Z,34.03
2023-05-02T08:58:53.399Z,33.53
2023-05-02T09:03:59.196Z,43.45
2023-05-02T09:09:02.085Z,26.40
2023-05-02T09:14:15.970Z,33.63
2023-05-02T09:19:27.614Z,33.60
2023-05-02T09:24:30.589Z,33.85
2023-05-02T09:29:37.859Z,36.53
2023-05-02T09:40:06.948Z,32.70
2023-05-02T09:45:10.822Z,20.95
2023-05-02T09:50:34.303Z,21.52
2023-05-02T09:55:38.056Z,24.90
2023-05-02T10:00:43.573Z,20.13
2023-05-02T10:05:50.727Z,19.55
2023-05-02T10:10:55.574Z,17.02
2023-05-02T10:16:01.674Z,12.23
2023-05-02T10:21:11.403Z,9.85
2023-05-02T10:26:16.793Z,9.93
2023-05-02T10:31:20.002Z,14.98
2023-05-02T10:36:28.142Z,14.95
2023-05-02T10:41:35.097Z,13.02
2023-05-02T10:46:40.636Z,11.88
2023-05-02T10:51:46.857Z,14.07
2023-05-02T10:57:07.593Z,14.27
2023-05-02T11:02:44.236Z,11.07
2023-05-02T11:07:49.154Z,12.27
2023-05-02T11:12:53.176Z,12.02
2023-05-02T11:18:03.535Z,16.40
2023-05-02T11:23:26.050Z,12.35
2023-05-02T11:28:47.965Z,13.70
2023-05-02T11:33:57.584Z,10.35
2023-05-02T11:39:02.056Z,13.05
2023-05-02T11:44:08.109Z,15.13
2023-05-02T11:49:15.120Z,17.77
2023-05-02T11:54:21.875Z,15.87
2023-05-02T11:59:25.187Z,15.82
2023-05-02T12:04:30.216Z,15.82
2023-05-02T12:09:35.129Z,17.10
2023-05-02T12:14:41.222Z,15.20
2023-05-02T12:19:44.437Z,10.77
2023-05-02T12:24:50.604Z,14.25
2023-05-02T12:29:54.990Z,13.90
2023-05-02T12:34:58.800Z,12.40
2023-05-02T12:40:03.453Z,13.88
2023-05-02T12:45:18.090Z,14.05
2023-05-02T12:50:21.213Z,14.35
2023-05-02T12:55:26.905Z,19.48
2023-05-02T13:00:30.211Z,19.50
2023-05-02T13:05:36.208Z,15.02
2023-05-02T13:10:40.600Z,18.52
2023-05-02T13:15:44.491Z,12.65
2023-05-02T13:20:49.587Z,18.60
2023-05-02T13:25:54.231Z,9.65
2023-05-02T13:30:57.019Z,9.98
2023-05-02T13:36:01.590Z,9.15
2023-05-02T13:41:10.414Z,10.35
2023-05-02T13:46:15.298Z,10.43
2023-05-02T13:51:18.863Z,10.20
2023-05-02T13:56:24.719Z,6.93
2023-05-02T14:01:28.382Z,17.13
2023-05-02T14:06:31.956Z,9.80
2023-05-02T14:11:36.321Z,12.77
2023-05-02T14:16:40.251Z,15.40
2023-05-02T14:21:43.042Z,16.85
2023-05-02T14:26:48.742Z,13.02
2023-05-02T14:31:51.521Z,11.68
2023-05-02T14:36:55.287Z,12.68
2023-05-02T14:42:03.147Z,11.70
2023-05-02T14:47:07.159Z,14.15
2023-05-02T14:52:10.301Z,9.65
2023-05-02T14:57:15.425Z,13.10
2023-05-02T15:02:18.300Z,10.60
2023-05-02T15:07:22.887Z,10.82
2023-05-02T15:12:27.100Z,11.45
2023-05-02T15:17:31.313Z,10.23
2023-05-02T15:22:34.063Z,7.50
2023-05-02T15:27:38.309Z,7.57
2023-05-02T15:32:43.059Z,12.13
2023-05-02T15:37:47.343Z,12.07
2023-05-02T15:42:51.879Z,11.88
2023-05-02T15:47:55.849Z,12.88
2023-05-02T15:52:58.601Z,11.00
2023-05-02T15:58:03.477Z,11.50
2023-05-02T16:03:06.646Z,10.85
2023-05-02T16:08:09.446Z,8.90
2023-05-02T16:13:14.399Z,10.35
2023-05-02T16:18:17.559Z,8.40
2023-05-02T16:23:22.616Z,10.68
2023-05-02T16:28:28.460Z,6.15
2023-05-02T16:33:31.515Z,9.55
2023-05-02T16:38:36.243Z,11.85
2023-05-02T16:43:40.431Z,7.10
2023-05-02T16:48:44.486Z,6.07
2023-05-02T16:53:48.084Z,6.05
2023-05-02T16:58:52.156Z,7.70
2023-05-02T17:03:54.857Z,5.65
2023-05-02T17:08:57.539Z,10.25
2023-05-02T17:14:02.026Z,7.32
2023-05-02T17:19:05.168Z,8.77
2023-05-02T17:24:08.359Z,10.98
2023-05-02T17:29:14.596Z,9.68
2023-05-02T17:34:17.364Z,19.13
2023-05-02T17:39:22.044Z,17.80
2023-05-02T17:44:26.510Z,23.85
2023-05-02T17:49:29.216Z,10.52
2023-05-02T17:54:31.988Z,11.10
2023-05-02T17:59:40.554Z,18.75
2023-05-02T18:04:45.285Z,15.00
2023-05-02T18:09:48.105Z,10.48
2023-05-02T18:14:53.112Z,17.58
2023-05-02T18:19:56.557Z,23.75
2023-05-02T18:24:59.619Z,15.70
2023-05-02T18:30:06.309Z,13.38
2023-05-02T18:35:10.476Z,15.63
2023-05-02T18:40:14.014Z,9.63
2023-05-02T18:45:19.899Z,11.73
2023-05-02T18:50:23.554Z,14.00
2023-05-02T18:55:27.139Z,12.07
2023-05-02T19:00:31.638Z,11.43
2023-05-02T19:05:34.777Z,9.32
2023-05-02T19:10:37.566Z,19.88
2023-05-02T19:15:41.808Z,13.30
2023-05-02T19:20:45.782Z,15.77
2023-05-02T19:25:49.389Z,15.00
2023-05-02T19:30:55.917Z,14.00
2023-05-02T19:36:00.085Z,13.57
2023-05-02T19:41:04.484Z,14.25
2023-05-02T19:46:08.715Z,16.23
2023-05-02T19:51:13.902Z,14.05
2023-05-02T19:56:16.690Z,11.30
2023-05-02T20:01:21.022Z,20.90
2023-05-02T20:06:24.736Z,9.82
2023-05-02T20:11:27.641Z,27.52
2023-05-02T20:16:31.954Z,29.10
2023-05-02T20:21:34.978Z,14.85
2023-05-02T20:26:37.728Z,12.10
2023-05-02T20:31:42.176Z,11.00
2023-05-02T20:36:44.937Z,19.13
2023-05-02T20:41:49.524Z,9.45
2023-05-02T20:46:53.584Z,12.27
2023-05-02T20:51:57.268Z,12.10
2023-05-02T20:57:00.045Z,14.93
2023-05-02T21:02:04.283Z,18.20
2023-05-02T21:07:07.093Z,10.40
2023-05-02T21:12:09.813Z,11.50
2023-05-02T21:17:13.864Z,16.75
2023-05-02T21:22:16.590Z,13.52
2023-05-02T21:27:19.538Z,15.45
2023-05-02T21:32:25.801Z,12.05
2023-05-02T21:37:28.750Z,14.77
2023-05-02T21:42:31.503Z,12.10
2023-05-02T21:47:35.645Z,24.80
2023-05-02T21:52:39.366Z,19.08
2023-05-02T21:57:42.174Z,20.02
2023-05-02T22:02:46.693Z,15.45
2023-05-02T22:07:49.934Z,13.25
2023-05-02T22:12:52.644Z,18.08
2023-05-02T22:17:57.187Z,16.15
2023-05-02T22:22:59.918Z,11.05
2023-05-02T22:28:06.692Z,16.85
2023-05-02T22:33:10.950Z,23.37
2023-05-02T22:38:16.488Z,17.02
2023-05-02T22:43:19.358Z,15.18
2023-05-02T22:48:23.414Z,17.88
2023-05-02T22:53:26.196Z,19.08
2023-05-02T22:58:28.888Z,16.13
2023-05-02T23:03:33.114Z,13.55
2023-05-02T23:08:35.903Z,18.83
2023-05-02T23:13:38.614Z,17.70
2023-05-02T23:18:42.693Z,22.00
2023-05-02T23:23:47.195Z,23.88
2023-05-02T23:28:49.950Z,16.40
2023-05-02T23:33:54.330Z,23.88
2023-05-02T23:38:57.047Z,22.65
2023-05-02T23:44:00.172Z,10.35
2023-05-02T23:49:04.663Z,20.73
2023-05-02T23:54:07.733Z,12.95
2023-05-02T23:59:10.960Z,26.92
